Time;durP1;ratioP1;P1;durP2;ratioP2;P2;SDS_P1;SDS_P2;PMS_P1;PMS_P2;Temp;Humidity;BMP_temperature;BMP_pressure;BME280_temperature;BME280_humidity;BME280_pressure;Samples;Min_cycle;Max_cycle;Signal;HPM_P1;HPM_P2
2020/12/20 00:02:19;;;;;;;1.72;1.17;;;;;;;1.29;100.00;102062.17;1785750;80;21655;-52
2020/12/20 00:04:47;;;;;;;1.25;1.20;;;;;;;1.29;100.00;102057.62;1785680;78;21390;-52
2020/12/20 00:07:17;;;;;;;0.45;0.30;;;;;;;1.29;100.00;102060.83;1785003;80;21547;-52
2020/12/20 00:09:44;;;;;;;1.70;1.60;;;;;;;1.27;100.00;102060.99;1785752;78;21189;-52
2020/12/20 00:12:11;;;;;;;1.65;1.32;;;;;;;1.28;100.00;102054.58;1785712;80;21106;-52
2020/12/20 00:14:40;;;;;;;1.15;1.02;;;;;;;1.29;100.00;102057.62;1785677;78;21561;-52
2020/12/20 00:17:10;;;;;;;1.55;1.50;;;;;;;1.28;100.00;102050.53;1785740;80;20952;-53
2020/12/20 00:19:39;;;;;;;0.80;0.60;;;;;;;1.28;100.00;102059.12;1766255;80;21127;-52
2020/12/20 00:22:12;;;;;;;0.95;0.70;;;;;;;1.29;100.00;102060.83;1763730;81;21138;-53
2020/12/20 00:24:41;;;;;;;1.10;0.95;;;;;;;1.29;100.00;102058.97;1778724;78;21445;-52
2020/12/20 00:27:11;;;;;;;3.35;1.00;;;;;;;1.28;100.00;102059.96;1754618;80;21513;-53
2020/12/20 00:29:40;;;;;;;1.05;1.02;;;;;;;1.27;100.00;102060.99;1785756;78;21604;-52
2020/12/20 00:32:11;;;;;;;1.37;1.27;;;;;;;1.27;100.00;102066.38;1789393;78;21126;-55
2020/12/20 00:34:39;;;;;;;0.45;0.45;;;;;;;1.27;100.00;102068.23;1791878;78;21148;-55
2020/12/20 00:37:06;;;;;;;0.40;0.40;;;;;;;1.27;100.00;102065.03;1791856;80;21447;-55
2020/12/20 00:39:34;;;;;;;1.07;1.00;;;;;;;1.27;100.00;102059.64;1791801;78;21441;-55
2020/12/20 00:42:04;;;;;;;3.75;0.82;;;;;;;1.26;100.00;102057.98;1791662;80;21521;-55
2020/12/20 00:44:32;;;;;;;3.00;1.20;;;;;;;1.26;100.00;102060.67;1791345;78;21101;-55
2020/12/20 00:47:02;;;;;;;1.87;1.75;;;;;;;1.28;100.00;102064.52;1791262;80;21113;-55
2020/12/20 00:49:31;;;;;;;1.70;1.57;;;;;;;1.26;100.00;102063.37;1791167;78;21130;-55
2020/12/20 00:52:03;;;;;;;0.25;0.25;;;;;;;1.27;100.00;102053.42;1791184;80;21596;-55
2020/12/20 00:54:39;;;;;;;0.75;0.75;;;;;;;1.31;100.00;102056.10;1868658;76;29521;-52
2020/12/20 00:57:08;;;;;;;2.20;0.90;;;;;;;1.26;100.00;102057.98;1792913;78;21083;-52
2020/12/20 00:59:36;;;;;;;1.00;0.93;;;;;;;1.27;100.00;102058.30;1824675;77;21134;-52
2020/12/20 01:02:03;;;;;;;3.00;0.47;;;;;;;1.27;100.00;102058.81;1824642;78;21113;-53
2020/12/20 01:04:32;;;;;;;0.57;0.57;;;;;;;1.27;100.00;102058.30;1824634;77;21530;-52
2020/12/20 01:07:00;;;;;;;0.62;0.47;;;;;;;1.28;100.00;102056.44;1824681;78;21370;-53
2020/12/20 01:09:29;;;;;;;2.25;1.55;;;;;;;1.28;100.00;102061.31;1824680;77;21076;-52
2020/12/20 01:11:59;;;;;;;0.90;0.62;;;;;;;1.27;100.00;102058.30;1824735;78;21135;-52
2020/12/20 01:14:28;;;;;;;0.10;0.10;;;;;;;1.27;100.00;102057.47;1820048;77;21506;-52
2020/12/20 01:16:58;;;;;;;0.70;0.70;;;;;;;1.26;100.00;102055.77;1824583;78;21118;-52
2020/12/20 01:19:27;;;;;;;0.62;0.62;;;;;;;1.26;100.00;102059.33;1819767;77;21051;-52
2020/12/20 01:21:55;;;;;;;1.55;0.40;;;;;;;1.26;100.00;102062.50;1824740;78;21156;-52
2020/12/20 01:24:23;;;;;;;1.92;1.75;;;;;;;1.26;100.00;102066.06;1824575;77;21154;-52
2020/12/20 01:26:51;;;;;;;0.90;0.42;;;;;;;1.26;100.00;102065.20;1824634;78;21454;-52
2020/12/20 01:29:19;;;;;;;1.45;0.25;;;;;;;1.27;100.00;102066.38;1824611;77;21411;-52
2020/12/20 01:31:49;;;;;;;0.37;0.37;;;;;;;1.26;100.00;102071.45;1824695;78;21071;-52
2020/12/20 01:34:19;;;;;;;0.82;0.82;;;;;;;1.27;100.00;102075.80;1824189;77;21084;-52
2020/12/20 01:36:47;;;;;;;1.62;1.27;;;;;;;1.28;100.00;102077.98;1824688;78;21150;-52
2020/12/20 01:39:15;;;;;;;5.87;1.75;;;;;;;1.28;100.00;102073.42;1824585;77;21119;-52
2020/12/20 01:41:43;;;;;;;1.17;0.98;;;;;;;1.26;100.00;102067.41;1824675;78;21122;-52
2020/12/20 01:44:12;;;;;;;0.10;0.10;;;;;;;1.28;100.00;102072.59;1824579;77;21094;-52
2020/12/20 01:46:42;;;;;;;2.45;1.45;;;;;;;1.27;100.00;102073.11;1824399;78;21130;-52
2020/12/20 01:49:11;;;;;;;2.20;1.05;;;;;;;1.27;100.00;102071.77;1824549;77;21170;-52
2020/12/20 01:51:39;;;;;;;6.28;1.00;;;;;;;1.28;100.00;102077.47;1793126;78;21135;-52
2020/12/20 01:54:09;;;;;;;1.30;1.22;;;;;;;1.27;100.00;102077.16;1808710;78;21109;-52
2020/12/20 01:56:37;;;;;;;2.83;0.82;;;;;;;1.28;100.00;102072.08;1800508;79;21078;-53
2020/12/20 01:59:07;;;;;;;2.45;0.72;;;;;;;1.28;100.00;102073.42;1772057;79;21125;-52
2020/12/20 02:01:36;;;;;;;3.58;1.72;;;;;;;1.28;100.00;102077.47;1799879;79;21129;-52
2020/12/20 02:04:31;;;;;;;0.65;0.65;;;;;;;1.32;100.00;102075.79;1831571;76;29102;-52
2020/12/20 02:07:00;;;;;;;1.40;0.88;;;;;;;1.26;100.00;102078.18;1785744;80;21118;-52
2020/12/20 02:09:28;;;;;;;0.20;0.20;;;;;;;1.26;100.00;102077.31;1785743;78;21174;-52
2020/12/20 02:12:05;;;;;;;0.75;0.75;;;;;;;1.26;100.00;102079.53;1785790;80;21130;-52
2020/12/20 02:14:34;;;;;;;1.50;1.25;;;;;;;1.27;100.00;102078.50;1785832;78;21181;-52
2020/12/20 02:17:04;;;;;;;0.10;0.10;;;;;;;1.27;100.00;102076.32;1785844;80;21110;-52
2020/12/20 02:19:34;;;;;;;1.25;0.82;;;;;;;1.26;100.00;102075.48;1785638;78;21153;-52
2020/12/20 02:22:09;;;;;;;0.95;0.82;;;;;;;1.25;100.00;102079.69;1783505;80;21147;-52
2020/12/20 02:24:37;;;;;;;2.67;1.02;;;;;;;1.26;100.00;102086.26;1750053;80;21453;-52
2020/12/20 02:27:07;;;;;;;3.22;0.98;;;;;;;1.27;100.00;102083.05;1754507;81;21145;-52
2020/12/20 02:29:37;;;;;;;1.07;0.98;;;;;;;1.28;100.00;102085.55;1754426;80;21153;-52
2020/12/20 02:32:04;;;;;;;1.12;0.95;;;;;;;1.29;100.00;102087.76;1754658;81;21142;-52
2020/12/20 02:34:33;;;;;;;9.73;1.10;;;;;;;1.30;100.00;102088.08;1754798;80;21272;-52
2020/12/20 02:37:01;;;;;;;0.00;0.00;;;;;;;1.31;100.00;102087.56;1754575;81;21422;-52
2020/12/20 02:39:31;;;;;;;0.50;0.47;;;;;;;1.31;100.00;102090.25;1754360;80;21453;-52
2020/12/20 02:42:01;;;;;;;1.07;0.98;;;;;;;1.33;100.00;102094.95;1754693;81;21444;-52
2020/12/20 02:44:30;;;;;;;0.33;0.33;;;;;;;1.33;100.00;102093.61;1754576;80;21169;-52
2020/12/20 02:47:00;;;;;;;0.23;0.23;;;;;;;1.33;100.00;102093.61;1754674;81;21564;-52
2020/12/20 02:49:28;;;;;;;1.55;1.30;;;;;;;1.33;100.00;102090.41;1754553;80;21125;-52
2020/12/20 02:51:57;;;;;;;1.32;0.62;;;;;;;1.34;100.00;102096.14;1754517;81;21137;-52
2020/12/20 02:54:24;;;;;;;0.35;0.35;;;;;;;1.34;100.00;102098.00;1754548;80;21694;-52
2020/12/20 02:56:52;;;;;;;0.45;0.45;;;;;;;1.34;100.00;102092.10;1754691;81;21512;-52
2020/12/20 02:59:21;;;;;;;0.60;0.60;;;;;;;1.36;100.00;102101.33;1754259;80;21178;-52
2020/12/20 03:01:49;;;;;;;0.78;0.78;;;;;;;1.36;100.00;102104.02;1754583;81;22063;-52
2020/12/20 03:04:18;;;;;;;0.30;0.30;;;;;;;1.37;100.00;102094.95;1761251;79;21194;-52
2020/12/20 03:06:46;;;;;;;0.47;0.47;;;;;;;1.38;100.00;102103.34;1763136;81;21157;-52
2020/12/20 03:09:13;;;;;;;8.55;1.92;;;;;;;1.39;100.00;102105.03;1763191;79;21185;-52
2020/12/20 03:11:41;;;;;;;0.90;0.42;;;;;;;1.40;100.00;102098.63;1763258;81;21178;-52
2020/12/20 03:14:10;;;;;;;0.33;0.33;;;;;;;1.40;100.00;102102.14;1763074;79;21213;-52
2020/12/20 03:16:40;;;;;;;1.30;1.20;;;;;;;1.40;100.00;102100.80;1762686;81;21386;-52
2020/12/20 03:19:08;;;;;;;0.53;0.47;;;;;;;1.39;100.00;102099.14;1762640;80;21485;-52
2020/12/20 03:21:36;;;;;;;0.42;0.42;;;;;;;1.37;100.00;102097.13;1762124;81;21102;-52
2020/12/20 03:24:17;;;;;;;3.83;0.57;;;;;;;1.38;100.00;102103.34;1778904;78;21130;-52
2020/12/20 03:27:02;;;;;;;1.85;1.25;;;;;;;1.42;100.00;102106.02;1847579;76;29057;-52
2020/12/20 03:29:38;;;;;;;0.93;0.93;;;;;;;1.37;100.00;102109.25;1796083;78;21557;-52
2020/12/20 03:32:23;;;;;;;0.90;0.90;;;;;;;1.39;100.00;102104.52;1785869;80;21137;-52
2020/12/20 03:34:56;;;;;;;0.28;0.28;;;;;;;1.40;100.00;102105.36;1784344;78;21248;-52
2020/12/20 03:37:26;;;;;;;2.67;0.33;;;;;;;1.40;100.00;102106.70;1784856;80;21133;-52
2020/12/20 03:40:05;;;;;;;0.75;0.75;;;;;;;1.40;100.00;102110.74;1785025;78;21159;-52
2020/12/20 03:42:33;;;;;;;3.10;0.65;;;;;;;1.39;100.00;102113.95;1755687;80;21153;-52
2020/12/20 03:45:01;;;;;;;4.25;2.25;;;;;;;1.41;100.00;102111.06;1785976;78;21102;-52
2020/12/20 03:47:29;;;;;;;3.25;1.62;;;;;;;1.40;100.00;102111.58;1755762;80;21114;-52
2020/12/20 03:49:57;;;;;;;2.37;2.17;;;;;;;1.39;100.00;102120.69;1786064;78;21540;-52
2020/12/20 03:52:25;;;;;;;1.95;1.55;;;;;;;1.40;100.00;102121.00;1786190;80;21114;-52
2020/12/20 03:54:54;;;;;;;0.65;0.30;;;;;;;1.41;100.00;102117.80;1785432;78;21642;-52
2020/12/20 03:57:22;;;;;;;3.00;1.85;;;;;;;1.42;100.00;102123.02;1755590;80;21194;-52
2020/12/20 03:59:50;;;;;;;1.87;1.77;;;;;;;1.44;100.00;102126.38;1785986;78;21159;-52
2020/12/20 04:02:19;;;;;;;1.45;0.45;;;;;;;1.45;100.00;102129.91;1786032;80;21114;-52
2020/12/20 04:04:47;;;;;;;2.85;0.90;;;;;;;1.43;100.00;102126.03;1785706;78;21114;-52
2020/12/20 04:07:15;;;;;;;0.30;0.30;;;;;;;1.43;100.00;102121.16;1785904;80;21146;-52
2020/12/20 04:09:44;;;;;;;0.10;0.10;;;;;;;1.43;100.00;102127.38;1785817;78;21169;-52
2020/12/20 04:12:28;;;;;;;2.52;0.82;;;;;;;1.48;100.00;102126.84;1847597;76;29066;-52
2020/12/20 04:14:56;;;;;;;1.20;1.10;;;;;;;1.46;100.00;102128.91;1797174;78;21125;-52
2020/12/20 04:17:24;;;;;;;0.68;0.68;;;;;;;1.47;100.00;102135.95;1786064;80;21149;-52
2020/12/20 04:19:51;;;;;;;0.62;0.60;;;;;;;1.47;100.00;102133.27;1786024;78;21145;-52
2020/12/20 04:22:26;;;;;;;0.80;0.80;;;;;;;1.49;100.00;102134.77;1781665;80;21111;-52
2020/12/20 04:24:55;;;;;;;0.20;0.20;;;;;;;1.49;100.00;102136.62;1757430;80;21110;-52
2020/12/20 04:27:25;;;;;;;1.30;1.10;;;;;;;1.49;100.00;102140.16;1754849;81;21114;-52
2020/12/20 04:29:54;;;;;;;1.80;1.70;;;;;;;1.49;100.00;102146.05;1725551;81;21137;-52
2020/12/20 04:32:22;;;;;;;1.27;1.27;;;;;;;1.49;100.00;102144.70;1725288;81;21552;-52
2020/12/20 04:34:51;;;;;;;5.10;3.20;;;;;;;1.48;100.00;102150.61;1754912;80;21573;-52
2020/12/20 04:37:19;;;;;;;3.67;3.42;;;;;;;1.51;100.00;102150.77;1754886;81;21147;-52
2020/12/20 04:39:48;;;;;;;0.88;0.88;;;;;;;1.50;100.00;102152.59;1753470;80;21150;-52
2020/12/20 04:42:18;;;;;;;2.40;2.25;;;;;;;1.50;100.00;102158.50;1725580;81;21130;-52
2020/12/20 04:44:46;;;;;;;4.33;1.32;;;;;;;1.49;100.00;102158.17;1754938;80;21122;-52
2020/12/20 04:47:13;;;;;;;3.12;1.25;;;;;;;1.49;100.00;102148.75;1725703;81;21126;-52
2020/12/20 04:49:44;;;;;;;2.08;1.90;;;;;;;1.48;100.00;102162.73;1754412;80;21193;-52
2020/12/20 04:52:13;;;;;;;1.15;1.15;;;;;;;1.47;100.00;102160.20;1754658;81;21445;-52
2020/12/20 04:54:42;;;;;;;4.00;2.30;;;;;;;1.46;100.00;102161.23;1754736;80;21167;-52
2020/12/20 04:57:15;;;;;;;0.88;0.88;;;;;;;1.46;100.00;102163.41;1702730;81;21538;-52
2020/12/20 04:59:45;;;;;;;0.30;0.30;;;;;;;1.45;100.00;102160.37;1754609;80;21434;-52
2020/12/20 05:02:13;;;;;;;1.10;0.53;;;;;;;1.47;100.00;102169.63;1725151;81;21600;-52
2020/12/20 05:04:41;;;;;;;1.37;1.10;;;;;;;1.45;100.00;102164.41;1754651;80;21142;-52
2020/12/20 05:07:10;;;;;;;1.45;0.50;;;;;;;1.45;100.00;102163.58;1725065;81;21745;-52
2020/12/20 05:09:47;;;;;;;0.45;0.45;;;;;;;1.44;100.00;102165.95;1754072;80;21620;-52
2020/12/20 05:12:29;;;;;;;0.62;0.45;;;;;;;1.45;100.00;102166.27;1761566;81;21141;-52
2020/12/20 05:14:59;;;;;;;0.93;0.93;;;;;;;1.45;100.00;102166.27;1763249;80;21079;-52
2020/12/20 05:17:28;;;;;;;0.20;0.20;;;;;;;1.44;100.00;102169.48;1763283;81;21612;-52
2020/12/20 05:20:06;;;;;;;1.27;1.12;;;;;;;1.45;100.00;102171.14;1762477;79;21576;-52
2020/12/20 05:22:34;;;;;;;0.10;0.10;;;;;;;1.47;100.00;102181.24;1690015;81;21133;-52
2020/12/20 05:25:17;;;;;;;0.88;0.80;;;;;;;1.47;100.00;102170.98;1762701;79;21121;-52
2020/12/20 05:27:46;;;;;;;0.15;0.15;;;;;;;1.49;100.00;102180.56;1762243;81;23841;-52
2020/12/20 05:30:17;;;;;;;0.37;0.37;;;;;;;1.49;100.00;102182.42;1761792;79;21114;-52
2020/12/20 05:32:55;;;;;;;0.50;0.50;;;;;;;1.50;100.00;102188.12;1783152;79;21163;-52
2020/12/20 05:35:25;;;;;;;0.00;0.00;;;;;;;1.50;100.00;102184.92;1794136;79;21587;-52
2020/12/20 05:37:52;;;;;;;1.45;0.33;;;;;;;1.50;100.00;102188.97;1794280;79;21129;-52
2020/12/20 05:40:34;;;;;;;0.80;0.80;;;;;;;1.55;100.00;102188.95;1814600;76;29107;-52
2020/12/20 05:43:07;;;;;;;0.33;0.23;;;;;;;1.50;100.00;102191.66;1786130;80;21519;-52
2020/12/20 05:45:37;;;;;;;3.15;2.05;;;;;;;1.52;100.00;102199.58;1785868;80;21134;-52
2020/12/20 05:48:23;;;;;;;1.00;0.90;;;;;;;1.53;100.00;102199.89;1785501;80;21647;-52
2020/12/20 05:50:57;;;;;;;2.92;1.12;;;;;;;1.54;100.00;102198.06;1783890;78;21130;-52
2020/12/20 05:53:28;;;;;;;0.13;0.13;;;;;;;1.55;100.00;102201.91;1784652;78;21205;-52
2020/12/20 05:55:57;;;;;;;0.62;0.62;;;;;;;1.55;100.00;102201.91;1786052;80;21169;-52
2020/12/20 05:58:32;;;;;;;0.68;0.68;;;;;;;1.55;100.00;102203.77;1785636;80;21321;-53
2020/12/20 06:01:02;;;;;;;0.00;0.00;;;;;;;1.56;100.00;102206.30;1785715;80;21131;-53
2020/12/20 06:03:30;;;;;;;3.42;2.60;;;;;;;1.58;100.00;102205.59;1785693;80;21177;-53
2020/12/20 06:06:00;;;;;;;5.08;3.65;;;;;;;1.57;100.00;102205.27;1769832;80;21114;-53
2020/12/20 06:08:31;;;;;;;2.65;2.45;;;;;;;1.57;100.00;102198.53;1784255;78;21264;-53
2020/12/20 06:10:58;;;;;;;5.20;2.92;;;;;;;1.55;100.00;102203.26;1783715;80;21332;-53
2020/12/20 06:13:26;;;;;;;2.35;2.17;;;;;;;1.56;100.00;102209.48;1781209;80;21139;-53
2020/12/20 06:15:55;;;;;;;0.82;0.82;;;;;;;1.57;100.00;102216.05;1785730;80;21129;-53
2020/12/20 06:18:29;;;;;;;0.75;0.75;;;;;;;1.58;100.00;102213.67;1785458;80;21133;-53
2020/12/20 06:20:59;;;;;;;5.12;1.80;;;;;;;1.59;100.00;102223.45;1777302;80;21764;-53
2020/12/20 06:23:32;;;;;;;0.65;0.65;;;;;;;1.58;100.00;102225.80;1781283;78;21137;-53
2020/12/20 06:26:09;;;;;;;1.10;1.00;;;;;;;1.64;100.00;102227.80;1847224;76;29527;-54
2020/12/20 06:28:36;;;;;;;0.53;0.53;;;;;;;1.61;100.00;102233.55;1774185;78;21126;-55
2020/12/20 06:31:04;;;;;;;3.40;1.72;;;;;;;1.62;100.00;102232.52;1703564;81;21135;-55
2020/12/20 06:33:45;;;;;;;2.00;0.80;;;;;;;1.63;100.00;102236.05;1753098;81;21134;-55
2020/12/20 06:36:14;;;;;;;0.68;0.68;;;;;;;1.64;100.00;102237.23;1754443;80;21154;-55
2020/12/20 06:38:53;;;;;;;1.98;1.35;;;;;;;1.65;100.00;102238.06;1753702;80;21280;-54
2020/12/20 06:41:37;;;;;;;1.00;0.55;;;;;;;1.66;100.00;102239.25;1753084;81;21126;-54
2020/12/20 06:44:14;;;;;;;1.47;1.37;;;;;;;1.67;100.00;102250.35;1771813;80;21198;-55
2020/12/20 06:46:44;;;;;;;0.47;0.47;;;;;;;1.68;100.00;102239.92;1785683;80;21644;-55
2020/12/20 06:49:39;;;;;;;0.70;0.70;;;;;;;1.67;100.00;102253.05;1785782;80;21133;-54
2020/12/20 06:52:23;;;;;;;1.12;1.12;;;;;;;1.68;100.00;102256.09;1769575;80;21145;-55
2020/12/20 06:55:09;;;;;;;2.55;1.30;;;;;;;1.70;100.00;102249.98;1771007;80;21557;-54
2020/12/20 06:57:57;;;;;;;2.42;2.05;;;;;;;1.72;100.00;102247.97;1753389;80;21123;-55
2020/12/20 07:00:55;;;;;;;1.85;1.70;;;;;;;1.75;100.00;102249.98;1757980;80;21561;-55
2020/12/20 07:03:31;;;;;;;1.35;0.40;;;;;;;1.75;100.00;102244.59;1780378;78;21525;-55
2020/12/20 07:06:11;;;;;;;1.35;1.25;;;;;;;1.75;100.00;102249.47;1786460;80;21126;-52
2020/12/20 07:08:40;;;;;;;1.72;1.60;;;;;;;1.74;100.00;102246.45;1753237;80;21130;-52
2020/12/20 07:11:24;;;;;;;0.60;0.60;;;;;;;1.74;100.00;102240.23;1778261;80;21125;-54
2020/12/20 07:13:54;;;;;;;0.80;0.72;;;;;;;1.74;100.00;102245.10;1783277;79;21169;-55
2020/12/20 07:16:38;;;;;;;3.90;1.37;;;;;;;1.72;100.00;102250.66;1756116;80;21145;-54
2020/12/20 07:19:06;;;;;;;4.30;0.60;;;;;;;1.71;100.00;102248.99;1791100;79;21110;-54
2020/12/20 07:21:58;;;;;;;1.22;0.85;;;;;;;1.74;100.00;102251.01;1756394;79;21554;-54
2020/12/20 07:24:31;;;;;;;0.72;0.50;;;;;;;1.75;100.00;102260.77;1785813;80;21169;-54
2020/12/20 07:27:01;;;;;;;0.62;0.62;;;;;;;1.76;100.00;102255.72;1776069;79;21177;-54
2020/12/20 07:29:30;;;;;;;0.68;0.68;;;;;;;1.77;100.00;102256.04;1752386;80;21156;-55
2020/12/20 07:31:59;;;;;;;4.08;2.72;;;;;;;1.78;100.00;102257.70;1741194;80;21144;-54
2020/12/20 07:34:26;;;;;;;1.57;1.47;;;;;;;1.80;100.00;102247.59;1740859;81;21184;-54
2020/12/20 07:36:55;;;;;;;1.22;1.12;;;;;;;1.84;100.00;102251.63;1748027;81;21141;-55
2020/12/20 07:39:24;;;;;;;1.37;1.27;;;;;;;1.88;100.00;102259.66;1757024;80;21229;-54
2020/12/20 07:41:54;;;;;;;2.77;2.58;;;;;;;1.88;100.00;102263.70;1719626;82;21148;-55
2020/12/20 07:44:23;;;;;;;1.47;1.37;;;;;;;1.91;100.00;102268.77;1765913;80;21323;-55
2020/12/20 07:46:51;;;;;;;3.25;1.82;;;;;;;1.93;100.00;102269.44;1786497;80;21126;-55
2020/12/20 07:49:18;;;;;;;0.57;0.57;;;;;;;1.95;100.00;102271.42;1725877;83;21128;-55
2020/12/20 07:51:45;;;;;;;0.57;0.57;;;;;;;1.97;100.00;102269.39;1754093;81;21138;-55
2020/12/20 07:54:14;;;;;;;1.75;0.78;;;;;;;1.99;100.00;102270.06;1723337;81;21567;-55
2020/12/20 07:56:46;;;;;;;1.35;1.25;;;;;;;2.01;100.00;102272.59;1727632;81;21514;-55
2020/12/20 07:59:18;;;;;;;0.30;0.30;;;;;;;1.99;100.00;102270.58;1718758;82;21653;-55
2020/12/20 08:01:47;;;;;;;1.17;0.62;;;;;;;2.01;100.00;102272.08;1719132;82;21177;-56
2020/12/20 08:04:19;;;;;;;5.60;1.10;;;;;;;2.05;100.00;102276.11;1790477;79;21205;-56
2020/12/20 08:06:51;;;;;;;1.05;0.98;;;;;;;2.08;100.00;102274.91;1787370;80;21122;-56
2020/12/20 08:09:25;;;;;;;0.88;0.85;;;;;;;2.12;100.00;102278.91;1783474;80;21102;-56
2020/12/20 08:11:54;;;;;;;1.75;1.22;;;;;;;2.13;100.00;102276.04;1775903;80;21126;-56
2020/12/20 08:14:22;;;;;;;4.40;1.22;;;;;;;2.15;100.00;102280.75;1717257;83;21141;-56
2020/12/20 08:16:51;;;;;;;0.10;0.10;;;;;;;2.13;100.00;102277.39;1720819;83;21719;-56
2020/12/20 08:19:29;;;;;;;0.50;0.37;;;;;;;2.15;100.00;102273.14;1723217;83;21150;-56
2020/12/20 08:22:14;;;;;;;2.05;0.72;;;;;;;2.15;100.00;102274.01;1740780;81;21117;-56
2020/12/20 08:24:47;;;;;;;0.33;0.30;;;;;;;2.17;100.00;102272.46;1734045;81;21568;-56
2020/12/20 08:27:24;;;;;;;2.27;1.10;;;;;;;2.22;100.00;102280.02;1735956;82;21429;-55
2020/12/20 08:29:58;;;;;;;1.15;1.05;;;;;;;2.23;100.00;102272.28;1732181;81;21430;-56
2020/12/20 08:32:41;;;;;;;0.20;0.17;;;;;;;2.23;100.00;102279.02;1734674;82;21160;-56
2020/12/20 08:35:16;;;;;;;0.20;0.20;;;;;;;2.23;100.00;102283.91;1749970;80;21132;-56
2020/12/20 08:37:45;;;;;;;0.55;0.55;;;;;;;2.23;100.00;102278.50;1705749;81;21461;-56
2020/12/20 08:40:14;;;;;;;1.60;0.17;;;;;;;2.24;100.00;102275.29;1703690;83;21486;-56
2020/12/20 08:42:43;;;;;;;0.20;0.20;;;;;;;2.23;100.00;102273.63;1723540;83;21577;-56
2020/12/20 08:45:18;;;;;;;2.08;1.10;;;;;;;2.23;100.00;102262.84;1731733;82;21590;-56
2020/12/20 08:47:45;;;;;;;0.82;0.82;;;;;;;2.26;100.00;102263.81;1728727;81;21571;-56
2020/12/20 08:50:13;;;;;;;0.70;0.70;;;;;;;2.26;100.00;102266.52;1723792;81;21172;-56
2020/12/20 08:52:41;;;;;;;2.80;1.02;;;;;;;2.28;100.00;102283.37;1729452;82;21471;-56
2020/12/20 08:55:09;;;;;;;1.17;1.17;;;;;;;2.28;100.00;102278.80;1730763;81;21445;-56
2020/12/20 08:57:36;;;;;;;0.53;0.53;;;;;;;2.30;100.00;102282.17;1731096;82;21125;-56
2020/12/20 09:00:13;;;;;;;5.75;0.85;;;;;;;2.32;100.00;102273.87;1730373;81;21176;-56
2020/12/20 09:02:41;;;;;;;2.08;0.65;;;;;;;2.33;100.00;102275.57;1731241;82;21433;-56
2020/12/20 09:05:14;;;;;;;0.30;0.30;;;;;;;2.32;100.00;102275.22;1731568;82;21142;-56
2020/12/20 09:07:49;;;;;;;0.95;0.82;;;;;;;2.34;100.00;102274.02;1727837;82;21180;-56
2020/12/20 09:10:20;;;;;;;0.23;0.23;;;;;;;2.35;100.00;102281.12;1731754;81;21128;-56
2020/12/20 09:12:57;;;;;;;0.25;0.25;;;;;;;2.34;100.00;102276.72;1732789;81;21078;-55
2020/12/20 09:15:32;;;;;;;2.30;1.72;;;;;;;2.35;100.00;102270.84;1730205;82;21109;-55
2020/12/20 09:18:18;;;;;;;0.53;0.53;;;;;;;2.35;100.00;102278.42;1728902;82;21112;-55
2020/12/20 09:20:47;;;;;;;0.30;0.30;;;;;;;2.34;100.00;102275.89;1730186;81;21487;-55
2020/12/20 09:23:24;;;;;;;3.10;2.12;;;;;;;2.34;100.00;102275.89;1730178;82;21118;-55
2020/12/20 09:26:01;;;;;;;7.33;0.95;;;;;;;2.38;100.00;102275.87;1728294;82;21006;-55
2020/12/20 09:28:30;;;;;;;0.33;0.33;;;;;;;2.44;100.00;102277.00;1724497;83;21145;-55
2020/12/20 09:30:59;;;;;;;1.75;1.17;;;;;;;2.49;100.00;102270.55;1724698;83;21625;-55
2020/12/20 09:33:33;;;;;;;0.40;0.40;;;;;;;2.51;100.00;102272.56;1725733;81;21182;-55
2020/12/20 09:36:11;;;;;;;0.10;0.10;;;;;;;2.56;100.00;102268.28;1721319;83;21135;-55
2020/12/20 09:38:45;;;;;;;1.55;1.15;;;;;;;2.56;100.00;102273.69;1709607;83;21109;-55
2020/12/20 09:41:21;;;;;;;0.70;0.50;;;;;;;2.52;100.00;102266.12;1726316;83;21141;-55
2020/12/20 09:43:49;;;;;;;0.03;0.03;;;;;;;2.45;100.00;102270.56;1725964;83;21612;-55
2020/12/20 09:46:29;;;;;;;1.05;1.05;;;;;;;2.40;100.00;102264.39;1713227;83;21205;-55
2020/12/20 09:48:57;;;;;;;5.40;1.27;;;;;;;2.38;100.00;102269.12;1677544;84;21182;-55
2020/12/20 09:51:25;;;;;;;0.35;0.35;;;;;;;2.35;100.00;102270.84;1690900;84;21542;-55
2020/12/20 09:53:53;;;;;;;1.75;0.68;;;;;;;2.36;100.00;102264.41;1701883;83;21167;-55
2020/12/20 09:56:20;;;;;;;1.75;0.55;;;;;;;2.36;100.00;102267.11;1696244;84;21909;-55
2020/12/20 09:58:48;;;;;;;5.47;1.07;;;;;;;2.35;100.00;102264.09;1726645;81;21142;-55
2020/12/20 10:01:25;;;;;;;0.10;0.10;;;;;;;2.31;100.00;102265.47;1694147;84;21182;-55
2020/12/20 10:03:53;;;;;;;0.20;0.20;;;;;;;2.32;100.00;102266.61;1726775;83;21126;-56
2020/12/20 10:06:21;;;;;;;1.42;1.32;;;;;;;2.37;100.00;102257.98;1724974;82;21120;-55
2020/12/20 10:08:48;;;;;;;3.85;0.62;;;;;;;2.40;100.00;102260.34;1719083;83;21724;-56
2020/12/20 10:11:17;;;;;;;0.20;0.20;;;;;;;2.43;100.00;102261.32;1678005;84;21485;-55
2020/12/20 10:13:46;;;;;;;1.55;1.10;;;;;;;2.43;100.00;102259.97;1709016;83;21249;-55
2020/12/20 10:16:20;;;;;;;0.25;0.25;;;;;;;2.45;100.00;102267.37;1706891;83;21521;-55
2020/12/20 10:18:48;;;;;;;0.55;0.55;;;;;;;2.44;100.00;102271.08;1663811;85;21181;-55
2020/12/20 10:21:16;;;;;;;0.45;0.45;;;;;;;2.43;100.00;102271.28;1678025;85;21195;-55
2020/12/20 10:23:45;;;;;;;0.50;0.50;;;;;;;2.42;100.00;102266.89;1723620;82;21683;-55
2020/12/20 10:26:12;;;;;;;0.80;0.40;;;;;;;2.43;100.00;102265.89;1730609;81;21131;-55
2020/12/20 10:28:40;;;;;;;0.30;0.30;;;;;;;2.43;100.00;102264.02;1756388;81;21155;-55
2020/12/20 10:31:08;;;;;;;0.00;0.00;;;;;;;2.39;100.00;102265.91;1734687;82;21522;-55
2020/12/20 10:33:37;;;;;;;0.13;0.13;;;;;;;2.27;100.00;102264.14;1734055;81;21182;-55
2020/12/20 10:36:05;;;;;;;0.90;0.62;;;;;;;2.24;100.00;102271.25;1732843;80;21578;-55
2020/12/20 10:38:32;;;;;;;0.17;0.17;;;;;;;2.21;100.00;102269.75;1751126;81;21106;-55
2020/12/20 10:41:00;;;;;;;0.28;0.28;;;;;;;2.21;100.00;102267.56;1734859;82;21393;-55
2020/12/20 10:43:27;;;;;;;1.15;1.15;;;;;;;2.20;100.00;102265.87;1722537;83;21154;-55
2020/12/20 10:45:55;;;;;;;1.17;0.65;;;;;;;2.20;100.00;102274.83;1719485;82;21142;-55
2020/12/20 10:48:23;;;;;;;0.90;0.90;;;;;;;2.19;100.00;102266.91;1722080;82;21126;-55
2020/12/20 10:50:50;;;;;;;0.30;0.30;;;;;;;2.18;100.00;102261.16;1740986;81;21173;-55
2020/12/20 10:53:17;;;;;;;0.10;0.10;;;;;;;2.18;100.00;102259.81;1706898;81;21106;-55
2020/12/20 10:55:45;;;;;;;0.55;0.55;;;;;;;2.20;100.00;102257.78;1724485;83;21134;-55
2020/12/20 10:58:12;;;;;;;0.65;0.30;;;;;;;2.22;100.00;102258.44;1724781;83;21148;-55
2020/12/20 11:00:40;;;;;;;0.68;0.68;;;;;;;2.26;100.00;102257.08;1754204;80;21586;-55
2020/12/20 11:03:08;;;;;;;1.45;0.30;;;;;;;2.29;100.00;102259.41;1768844;80;21135;-55
2020/12/20 11:05:37;;;;;;;0.10;0.10;;;;;;;2.27;100.00;102254.17;1746962;81;21260;-55
2020/12/20 11:08:04;;;;;;;0.78;0.78;;;;;;;2.31;100.00;102256.02;1733576;82;21129;-55
2020/12/20 11:10:33;;;;;;;1.30;0.85;;;;;;;2.36;100.00;102263.06;1730400;82;21174;-55
2020/12/20 11:13:01;;;;;;;1.10;0.72;;;;;;;2.39;100.00;102258.64;1792899;79;21130;-55
2020/12/20 11:15:28;;;;;;;0.37;0.37;;;;;;;2.41;100.00;102264.70;1792868;79;21145;-55
2020/12/20 11:17:56;;;;;;;0.55;0.55;;;;;;;2.45;100.00;102259.28;1707065;83;21165;-55
2020/12/20 11:20:23;;;;;;;0.37;0.37;;;;;;;2.46;100.00;102263.66;1708030;82;21117;-55
2020/12/20 11:22:51;;;;;;;0.08;0.08;;;;;;;2.46;100.00;102265.00;1708346;84;21153;-55
2020/12/20 11:25:18;;;;;;;0.13;0.13;;;;;;;2.47;100.00;102269.36;1708020;82;21153;-55
2020/12/20 11:27:47;;;;;;;1.55;0.47;;;;;;;2.47;100.00;102270.71;1744129;81;21119;-56
2020/12/20 11:30:14;;;;;;;0.60;0.60;;;;;;;2.48;100.00;102268.88;1751622;81;21170;-55
2020/12/20 11:32:42;;;;;;;0.55;0.55;;;;;;;2.45;100.00;102269.22;1747677;81;21163;-55
2020/12/20 11:35:10;;;;;;;1.32;0.72;;;;;;;2.44;100.00;102268.91;1720197;83;21175;-55
2020/12/20 11:37:39;;;;;;;0.20;0.20;;;;;;;2.43;100.00;102270.77;1720217;83;21162;-56
2020/12/20 11:40:06;;;;;;;0.40;0.40;;;;;;;2.41;100.00;102266.05;1720113;83;21641;-56
2020/12/20 11:42:35;;;;;;;1.85;0.42;;;;;;;2.40;100.00;102267.09;1720168;83;21526;-55